Time;durP1;ratioP1;P1;durP2;ratioP2;P2;SDS_P1;SDS_P2;PMS_P1;PMS_P2;Temp;Humidity;BMP_temperature;BMP_pressure;BME280_temperature;BME280_humidity;BME280_pressure;Samples;Min_cycle;Max_cycle;Signal;HPM_P1;HPM_P2
2022/09/26 00:01:25;;;;;;;4.32;0.70;;;42.10;28.90;;;;;;4986745;28;20456;-65
2022/09/26 00:04:01;;;;;;;4.35;0.70;;;42.00;30.10;;;;;;5015981;28;20033;-65
2022/09/26 00:06:27;;;;;;;;;;;41.80;29.10;;;;;;5015933;28;20022;-67
2022/09/26 00:08:54;;;;;;;1.60;0.82;;;41.70;28.50;;;;;;5013106;28;20007;-65
2022/09/26 00:11:24;;;;;;;3.05;1.10;;;41.70;28.90;;;;;;5015964;28;20022;-65
2022/09/26 00:13:53;;;;;;;3.78;0.80;;;41.60;29.10;;;;;;5002698;28;20065;-66
2022/09/26 00:16:20;;;;;;;4.43;0.85;;;41.50;28.30;;;;;;5000803;28;20328;-65
2022/09/26 00:18:52;;;;;;;4.22;1.10;;;41.40;28.30;;;;;;4997965;28;20069;-62
2022/09/26 00:21:18;;;;;;;2.08;0.90;;;41.40;28.50;;;;;;5003571;28;20041;-65
2022/09/26 00:23:45;;;;;;;5.72;0.93;;;41.30;28.90;;;;;;5000586;28;20118;-65
2022/09/26 00:26:13;;;;;;;4.18;0.80;;;41.30;28.00;;;;;;5001616;28;20030;-63
2022/09/26 00:28:41;;;;;;;20.45;2.75;;;41.20;28.50;;;;;;5002000;28;20025;-64
2022/09/26 00:31:15;;;;;;;5.05;0.90;;;41.20;29.10;;;;;;5013949;28;20064;-65
2022/09/26 00:33:41;;;;;;;6.97;1.10;;;41.10;29.20;;;;;;4998627;28;20066;-65
2022/09/26 00:36:08;;;;;;;10.48;1.73;;;41.00;29.20;;;;;;4999685;28;20037;-63
2022/09/26 00:38:35;;;;;;;172.73;18.95;;;41.00;28.80;;;;;;4995653;28;20100;-66
2022/09/26 00:41:02;;;;;;;345.90;34.00;;;40.90;29.30;;;;;;5005361;28;20033;-66
2022/09/26 00:43:37;;;;;;;294.55;32.20;;;40.90;29.50;;;;;;5001770;28;20516;-65
2022/09/26 00:46:38;;;;;;;82.20;9.38;;;40.80;29.00;;;;;;5000355;28;20026;-66
2022/09/26 00:49:17;;;;;;;12.77;2.25;;;40.60;29.70;;;;;;4999389;28;20489;-67
2022/09/26 00:51:47;;;;;;;5.25;1.20;;;40.50;29.60;;;;;;5002691;28;20041;-68
2022/09/26 00:54:17;;;;;;;3.83;1.00;;;40.40;29.60;;;;;;4998274;28;20113;-67
2022/09/26 00:56:48;;;;;;;4.70;1.52;;;40.40;30.00;;;;;;4999564;28;20087;-66
2022/09/26 00:59:26;;;;;;;22.90;3.20;;;40.30;30.00;;;;;;5014012;28;20036;-66
2022/09/26 01:01:55;;;;;;;3.88;1.40;;;40.10;29.80;;;;;;5001299;28;20473;-68
2022/09/26 01:04:24;;;;;;;2.28;0.80;;;40.10;30.10;;;;;;4995488;28;20709;-67
2022/09/26 01:06:52;;;;;;;2.53;1.20;;;39.90;31.00;;;;;;4998215;28;20030;-67
2022/09/26 01:09:20;;;;;;;6.18;1.45;;;39.90;31.10;;;;;;5004325;28;20030;-64
2022/09/26 01:11:46;;;;;;;177.00;16.40;;;39.80;31.80;;;;;;5000367;28;20045;-65
2022/09/26 01:14:14;;;;;;;86.80;6.65;;;39.70;31.70;;;;;;5000041;28;20579;-65
2022/09/26 01:16:46;;;;;;;116.82;7.45;;;39.60;32.90;;;;;;5000671;28;20026;-66
2022/09/26 01:19:35;;;;;;;1.60;0.90;;;39.60;33.50;;;;;;5000911;28;20045;-67
2022/09/26 01:22:17;;;;;;;5.03;1.17;;;39.40;32.40;;;;;;5011696;28;20034;-66
2022/09/26 01:25:02;;;;;;;6.22;1.30;;;39.40;32.70;;;;;;5002379;28;20472;-65
2022/09/26 01:27:35;;;;;;;1.95;1.05;;;39.30;31.60;;;;;;5016864;28;20037;-65
2022/09/26 01:30:07;;;;;;;3.92;1.20;;;39.20;32.10;;;;;;5001624;28;20042;-66
2022/09/26 01:32:49;;;;;;;5.47;1.35;;;39.20;32.10;;;;;;4991227;28;20033;-67
2022/09/26 01:35:25;;;;;;;8.32;1.40;;;39.10;32.60;;;;;;5001829;28;20438;-64
2022/09/26 01:38:10;;;;;;;7.55;1.50;;;39.00;32.40;;;;;;4994913;28;20057;-65
2022/09/26 01:41:01;;;;;;;3.03;1.50;;;38.90;32.50;;;;;;5001817;28;20034;-65
2022/09/26 01:44:01;;;;;;;7.60;1.70;;;38.80;32.80;;;;;;4989005;28;20117;-66
2022/09/26 01:46:53;;;;;;;6.35;1.70;;;38.70;33.70;;;;;;4995186;28;20023;-66
2022/09/26 01:49:36;;;;;;;6.55;1.40;;;38.60;32.70;;;;;;4995023;28;20470;-66
2022/09/26 01:52:27;;;;;;;10.27;2.10;;;38.50;32.80;;;;;;4994791;28;20022;-65
2022/09/26 01:55:08;;;;;;;6.72;1.95;;;38.40;34.70;;;;;;4991912;28;20034;-64
2022/09/26 01:57:47;;;;;;;6.55;1.52;;;38.40;35.70;;;;;;4995585;28;20023;-64
2022/09/26 02:00:14;;;;;;;10.15;1.63;;;38.30;34.30;;;;;;4985969;28;20038;-64
2022/09/26 02:02:44;;;;;;;12.02;2.03;;;38.10;34.30;;;;;;5010543;28;20030;-64
2022/09/26 02:05:26;;;;;;;5.63;1.50;;;38.10;35.50;;;;;;4991221;28;20029;-64
2022/09/26 02:08:34;;;;;;;11.95;1.90;;;38.00;35.40;;;;;;5006400;28;20548;-65
2022/09/26 02:11:15;;;;;;;10.60;2.97;;;38.00;36.80;;;;;;4934055;29;20034;-65
2022/09/26 02:13:56;;;;;;;12.80;2.95;;;37.90;36.00;;;;;;4920162;29;20067;-63
2022/09/26 02:16:37;;;;;;;9.20;2.90;;;37.80;36.30;;;;;;4918962;29;20490;-64
2022/09/26 02:19:40;;;;;;;10.05;2.08;;;37.70;36.20;;;;;;4922418;29;20036;-63
2022/09/26 02:22:07;;;;;;;11.70;2.35;;;37.60;35.70;;;;;;4933288;29;20043;-63
2022/09/26 02:24:33;;;;;;;10.93;1.98;;;37.60;37.30;;;;;;4937527;29;20020;-64
2022/09/26 02:27:01;;;;;;;9.57;2.60;;;37.50;36.70;;;;;;4903992;28;20028;-63
2022/09/26 02:29:27;;;;;;;14.95;3.50;;;37.50;35.80;;;;;;4918950;28;20035;-63
2022/09/26 02:32:03;;;;;;;12.77;3.30;;;37.50;37.50;;;;;;4941042;29;20040;-65
2022/09/26 02:34:29;;;;;;;24.53;4.00;;;37.40;37.20;;;;;;4939525;29;20051;-64
2022/09/26 02:36:59;;;;;;;19.67;4.53;;;37.40;38.50;;;;;;4915442;29;20031;-64
2022/09/26 02:39:26;;;;;;;14.02;4.47;;;37.30;37.50;;;;;;4934665;29;20500;-65
2022/09/26 02:42:20;;;;;;;15.15;3.75;;;37.20;38.20;;;;;;4929285;29;20450;-64
2022/09/26 02:45:15;;;;;;;13.43;4.10;;;37.10;36.40;;;;;;4944362;28;20065;-65
2022/09/26 02:47:57;;;;;;;12.60;3.08;;;37.10;38.90;;;;;;4994308;28;20022;-64
2022/09/26 02:51:01;;;;;;;16.10;2.70;;;37.00;37.80;;;;;;4992974;28;20042;-66
2022/09/26 02:53:46;;;;;;;11.38;3.00;;;36.90;36.40;;;;;;4982117;28;20034;-63
2022/09/26 02:56:37;;;;;;;21.92;3.28;;;36.80;35.90;;;;;;4998855;28;20033;-63
2022/09/26 02:59:21;;;;;;;59.47;5.15;;;36.80;37.20;;;;;;4993596;28;20551;-64
2022/09/26 03:01:55;;;;;;;74.47;5.88;;;36.70;37.20;;;;;;4995136;28;20049;-64
2022/09/26 03:04:45;;;;;;;23.88;3.70;;;36.60;37.80;;;;;;4991667;28;20027;-66
2022/09/26 03:07:19;;;;;;;22.55;3.83;;;36.50;37.60;;;;;;4992543;28;20117;-63
2022/09/26 03:09:48;;;;;;;18.80;3.53;;;36.50;36.80;;;;;;5023075;28;20476;-63
2022/09/26 03:12:15;;;;;;;14.48;3.67;;;36.40;36.60;;;;;;5013246;28;20443;-65
2022/09/26 03:14:43;;;;;;;15.00;3.53;;;36.30;36.90;;;;;;4996604;28;20077;-63
2022/09/26 03:17:10;;;;;;;13.52;4.20;;;36.20;37.90;;;;;;5006813;28;20030;-63
2022/09/26 03:19:56;;;;;;;15.75;3.63;;;36.10;38.10;;;;;;4999137;28;20022;-63
2022/09/26 03:22:24;;;;;;;16.13;3.53;;;36.00;38.00;;;;;;5006944;28;20050;-64
2022/09/26 03:24:50;;;;;;;24.70;3.88;;;35.90;38.50;;;;;;4999300;28;20030;-64
2022/09/26 03:27:17;;;;;;;31.23;4.85;;;35.90;38.70;;;;;;4997267;28;20026;-64
2022/09/26 03:29:44;;;;;;;16.75;4.05;;;35.80;38.70;;;;;;4996617;28;20027;-63
2022/09/26 03:32:11;;;;;;;63.08;7.15;;;35.80;39.30;;;;;;4996285;28;20034;-63
2022/09/26 03:34:38;;;;;;;23.23;4.13;;;35.70;40.20;;;;;;5013070;28;20034;-65
2022/09/26 03:37:06;;;;;;;22.85;4.22;;;35.70;40.00;;;;;;5000730;28;20400;-64
2022/09/26 03:39:32;;;;;;;22.27;4.28;;;35.60;40.20;;;;;;4996714;28;20477;-63
2022/09/26 03:41:58;;;;;;;19.48;4.57;;;35.50;40.00;;;;;;5012625;28;20030;-64
2022/09/26 03:44:25;;;;;;;14.25;4.00;;;35.40;40.70;;;;;;4994588;28;20109;-66
2022/09/26 03:46:51;;;;;;;19.83;3.83;;;35.40;40.50;;;;;;5007195;28;20105;-64
2022/09/26 03:49:18;;;;;;;89.45;6.85;;;35.30;40.60;;;;;;4997752;28;20049;-64
2022/09/26 03:51:44;;;;;;;50.70;4.78;;;35.20;40.90;;;;;;5008559;28;20026;-65
2022/09/26 03:54:12;;;;;;;23.30;4.57;;;35.20;41.20;;;;;;4996073;28;20357;-66
2022/09/26 03:56:39;;;;;;;21.38;4.18;;;35.10;40.50;;;;;;5009293;28;20029;-62
2022/09/26 03:59:06;;;;;;;15.45;3.67;;;35.10;40.20;;;;;;4998073;28;20038;-63
2022/09/26 04:01:32;;;;;;;14.13;4.13;;;35.00;40.20;;;;;;4977417;28;20030;-63
2022/09/26 04:03:59;;;;;;;12.07;3.78;;;35.00;40.60;;;;;;5008006;28;20526;-65
2022/09/26 04:06:25;;;;;;;16.55;4.35;;;34.90;42.40;;;;;;4998386;28;20077;-65
2022/09/26 04:08:52;;;;;;;13.05;4.07;;;34.70;41.50;;;;;;4996682;28;20022;-64
2022/09/26 04:11:21;;;;;;;16.92;4.85;;;34.70;41.60;;;;;;4992821;28;20038;-64
2022/09/26 04:13:49;;;;;;;16.00;4.18;;;34.70;41.60;;;;;;5010697;28;20030;-65
2022/09/26 04:16:15;;;;;;;17.02;4.47;;;34.60;41.80;;;;;;5010355;28;20034;-63
2022/09/26 04:18:42;;;;;;;14.73;3.70;;;34.60;42.00;;;;;;5010379;28;20062;-64
2022/09/26 04:21:12;;;;;;;19.35;4.28;;;34.60;42.50;;;;;;4996376;28;20107;-65
2022/09/26 04:23:40;;;;;;;20.88;4.70;;;34.50;43.70;;;;;;5012708;28;20045;-66
2022/09/26 04:26:10;;;;;;;18.17;4.35;;;34.50;43.70;;;;;;4977688;28;20085;-64
2022/09/26 04:28:37;;;;;;;26.73;4.60;;;34.40;43.70;;;;;;4996485;28;20384;-64
2022/09/26 04:31:05;;;;;;;15.52;3.92;;;34.40;42.80;;;;;;4991423;28;20117;-63
2022/09/26 04:33:32;;;;;;;18.15;4.18;;;34.40;43.00;;;;;;4995108;28;20026;-64
2022/09/26 04:36:04;;;;;;;13.52;4.03;;;34.30;43.40;;;;;;5012481;28;20026;-64
2022/09/26 04:38:33;;;;;;;19.13;4.10;;;34.30;43.70;;;;;;5011466;28;20030;-63
2022/09/26 04:41:11;;;;;;;16.70;4.38;;;34.10;43.60;;;;;;4997556;28;20029;-64
2022/09/26 04:43:38;;;;;;;14.85;4.20;;;34.10;44.10;;;;;;5023711;28;20113;-66
2022/09/26 04:46:16;;;;;;;18.05;4.40;;;34.10;43.70;;;;;;4996726;28;20052;-64
2022/09/26 04:48:43;;;;;;;15.25;4.40;;;34.10;44.50;;;;;;4997697;28;20025;-64
2022/09/26 04:51:12;;;;;;;10.48;4.18;;;34.00;43.50;;;;;;4996514;28;20044;-64
2022/09/26 04:53:39;;;;;;;15.05;3.65;;;33.90;43.80;;;;;;4993641;28;20026;-65
2022/09/26 04:56:08;;;;;;;7.50;3.38;;;33.90;43.60;;;;;;4993269;28;20026;-65
2022/09/26 04:58:36;;;;;;;17.65;4.50;;;33.90;43.60;;;;;;5011418;28;20468;-65
2022/09/26 05:01:05;;;;;;;19.67;4.82;;;33.80;43.20;;;;;;4994126;28;20041;-64
2022/09/26 05:03:32;;;;;;;16.65;4.72;;;33.80;43.70;;;;;;5001120;28;20104;-64
2022/09/26 05:05:58;;;;;;;20.80;4.25;;;33.80;44.10;;;;;;5000797;28;20058;-65
2022/09/26 05:08:25;;;;;;;19.67;9.23;;;33.70;44.20;;;;;;4998689;28;20415;-65
2022/09/26 05:10:53;;;;;;;29.00;10.63;;;33.70;44.00;;;;;;5001408;28;20031;-64
2022/09/26 05:13:21;;;;;;;27.40;8.60;;;33.70;44.10;;;;;;4996038;28;20044;-64
2022/09/26 05:15:49;;;;;;;23.33;6.57;;;33.80;43.40;;;;;;4978177;28;20076;-65
2022/09/26 05:18:15;;;;;;;23.77;4.65;;;33.80;42.90;;;;;;5009786;28;20030;-65
2022/09/26 05:20:46;;;;;;;24.60;4.88;;;33.80;41.60;;;;;;4999692;28;20029;-63
2022/09/26 05:26:18;;;;;;;25.83;4.53;;;33.80;41.70;;;;;;4988816;28;20022;-67
2022/09/26 05:26:19;;;;;;;49.08;20.23;;;33.80;42.70;;;;;;4997034;28;20106;-67
2022/09/26 05:28:48;;;;;;;20.20;5.78;;;33.80;43.00;;;;;;4994306;28;20027;-67
2022/09/26 05:31:15;;;;;;;30.50;19.45;;;33.80;42.70;;;;;;4991994;28;20026;-65
2022/09/26 05:33:43;;;;;;;26.00;9.90;;;33.70;43.20;;;;;;4993808;28;20034;-64
2022/09/26 05:36:10;;;;;;;22.05;6.50;;;33.60;43.30;;;;;;5009097;28;20397;-65
2022/09/26 05:38:37;;;;;;;18.40;4.47;;;33.50;43.30;;;;;;5008720;28;20026;-64
2022/09/26 05:41:03;;;;;;;12.65;3.55;;;33.50;43.70;;;;;;5009339;28;20026;-65
2022/09/26 05:43:34;;;;;;;26.02;3.83;;;33.50;43.90;;;;;;5011789;28;20061;-64
2022/09/26 05:46:04;;;;;;;10.02;2.83;;;33.40;43.50;;;;;;5000572;28;20038;-66
2022/09/26 05:48:32;;;;;;;15.43;2.58;;;33.40;43.90;;;;;;5003626;28;20031;-66
2022/09/26 05:51:22;;;;;;;14.60;3.00;;;33.40;43.30;;;;;;5002068;28;20054;-64
2022/09/26 05:53:49;;;;;;;19.60;2.72;;;33.40;43.90;;;;;;4994268;28;20022;-65
2022/09/26 05:56:18;;;;;;;15.30;2.80;;;33.40;44.10;;;;;;4995594;28;20038;-67
2022/09/26 05:58:44;;;;;;;16.25;2.47;;;33.30;44.50;;;;;;5015265;28;21499;-64
2022/09/26 06:01:13;;;;;;;18.73;2.63;;;33.20;45.30;;;;;;5012226;28;20033;-66
2022/09/26 06:03:43;;;;;;;24.75;2.35;;;33.20;45.10;;;;;;4999180;28;20045;-65
2022/09/26 06:06:12;;;;;;;10.48;2.65;;;33.20;45.50;;;;;;4995311;28;20480;-65
2022/09/26 06:08:39;;;;;;;11.70;2.40;;;33.10;44.50;;;;;;5007415;28;20030;-65
2022/09/26 06:11:18;;;;;;;8.43;2.78;;;33.10;44.80;;;;;;4986338;28;20503;-65
2022/09/26 06:13:45;;;;;;;9.70;2.45;;;33.10;44.00;;;;;;4999419;28;20120;-65
2022/09/26 06:16:19;;;;;;;13.27;2.05;;;33.10;43.30;;;;;;5000743;28;20464;-64
2022/09/26 06:18:48;;;;;;;12.18;1.90;;;33.10;44.70;;;;;;5015714;28;20056;-65
2022/09/26 06:21:16;;;;;;;10.98;2.53;;;33.10;44.40;;;;;;5015814;28;20027;-66
2022/09/26 06:23:43;;;;;;;7.47;2.15;;;33.10;44.20;;;;;;5012860;28;20048;-65
2022/09/26 06:26:21;;;;;;;12.10;2.00;;;33.10;43.30;;;;;;4998419;28;20030;-65
2022/09/26 06:28:52;;;;;;;9.35;2.03;;;33.10;43.20;;;;;;4993657;28;20032;-65
2022/09/26 06:31:19;;;;;;;7.75;1.63;;;33.10;43.80;;;;;;5003838;28;20034;-66
2022/09/26 06:33:52;;;;;;;11.35;1.65;;;33.20;43.30;;;;;;5017796;28;20073;-67
2022/09/26 06:36:18;;;;;;;5.53;1.58;;;33.20;43.80;;;;;;4974282;28;20124;-65
2022/09/26 06:38:46;;;;;;;7.65;1.45;;;33.20;43.20;;;;;;5001964;28;20041;-64
2022/09/26 06:41:16;;;;;;;5.63;1.80;;;33.30;43.80;;;;;;4998753;28;20029;-65
2022/09/26 06:43:44;;;;;;;7.10;1.50;;;33.20;44.10;;;;;;4997815;28;20029;-66
2022/09/26 06:46:14;;;;;;;4.68;1.77;;;33.20;43.70;;;;;;4994267;28;20026;-64
2022/09/26 06:48:41;;;;;;;5.68;1.73;;;33.30;43.90;;;;;;4997012;28;20444;-64
2022/09/26 06:51:12;;;;;;;8.85;1.50;;;33.30;43.80;;;;;;4994063;28;20040;-65
2022/09/26 06:53:39;;;;;;;10.82;2.00;;;33.30;43.30;;;;;;4994996;28;20037;-65
2022/09/26 06:56:06;;;;;;;8.38;1.73;;;33.30;43.70;;;;;;5011861;28;20397;-66
2022/09/26 06:58:33;;;;;;;7.28;1.90;;;33.30;44.40;;;;;;4998949;28;20042;-65
2022/09/26 07:00:59;;;;;;;26.38;2.50;;;33.30;44.40;;;;;;4996742;28;20026;-64
2022/09/26 07:03:25;;;;;;;13.95;2.30;;;33.30;44.70;;;;;;4999598;28;20018;-65
2022/09/26 07:05:56;;;;;;;7.20;2.20;;;33.40;45.40;;;;;;4999590;28;20029;-67
2022/09/26 07:08:23;;;;;;;9.43;2.10;;;33.30;45.20;;;;;;4979436;28;20029;-64
2022/09/26 07:10:50;;;;;;;40.88;3.80;;;33.20;44.50;;;;;;4979692;28;20388;-65
2022/09/26 07:13:17;;;;;;;224.65;15.70;;;33.20;44.60;;;;;;4990676;28;20026;-65
2022/09/26 07:15:45;;;;;;;133.70;9.43;;;33.10;44.20;;;;;;5003966;28;20477;-64
2022/09/26 07:18:12;;;;;;;72.50;6.63;;;33.10;44.40;;;;;;5012555;28;20041;-65
2022/09/26 07:20:39;;;;;;;188.13;15.57;;;33.00;45.00;;;;;;4995212;28;20149;-64
2022/09/26 07:23:09;;;;;;;70.07;6.28;;;33.00;44.60;;;;;;4994000;28;20028;-64
2022/09/26 07:25:37;;;;;;;21.02;3.22;;;32.90;45.90;;;;;;5004231;28;20488;-66
2022/09/26 07:28:05;;;;;;;29.38;3.67;;;32.80;47.10;;;;;;4994326;28;20034;-66
2022/09/26 07:30:31;;;;;;;26.80;3.50;;;32.80;46.20;;;;;;4991030;28;20108;-65
2022/09/26 07:33:02;;;;;;;13.85;2.05;;;32.70;46.10;;;;;;4991158;28;20880;-65
2022/09/26 07:35:34;;;;;;;14.80;2.00;;;32.70;46.00;;;;;;4993278;28;20116;-66
2022/09/26 07:38:01;;;;;;;12.55;2.28;;;32.70;46.20;;;;;;5008225;28;20026;-66
2022/09/26 07:40:27;;;;;;;5.07;1.70;;;32.70;45.70;;;;;;5007136;28;20027;-65
2022/09/26 07:43:01;;;;;;;10.13;1.70;;;32.80;45.30;;;;;;4992780;28;20434;-67
2022/09/26 07:50:59;;;;;;;11.07;2.22;;;32.80;46.20;;;;;;4999399;28;20041;-66
2022/09/26 07:53:26;;;;;;;8.07;2.25;;;32.80;46.00;;;;;;5013014;28;20030;-66
2022/09/26 07:56:05;;;;;;;15.27;2.10;;;32.80;45.70;;;;;;4997833;28;20033;-66
2022/09/26 07:58:34;;;;;;;13.75;2.55;;;32.70;46.00;;;;;;5013398;28;20027;-65
2022/09/26 08:01:02;;;;;;;14.80;2.60;;;32.70;45.50;;;;;;4995359;28;20061;-65
2022/09/26 08:03:28;;;;;;;13.60;2.55;;;32.70;45.70;;;;;;4997890;28;20045;-65
2022/09/26 08:06:01;;;;;;;18.05;2.55;;;32.70;46.70;;;;;;4993035;28;20022;-67
2022/09/26 08:08:29;;;;;;;16.92;3.08;;;32.60;46.80;;;;;;5024105;28;20022;-65
2022/09/26 08:10:59;;;;;;;16.02;3.17;;;32.60;47.20;;;;;;4998870;28;20092;-66
2022/09/26 08:13:26;;;;;;;24.27;3.88;;;32.60;47.10;;;;;;4998124;28;20481;-67
2022/09/26 08:15:54;;;;;;;11.77;3.45;;;32.60;47.00;;;;;;5013956;28;20038;-65
2022/09/26 08:18:21;;;;;;;28.77;3.88;;;32.50;47.50;;;;;;5013774;28;20072;-64
2022/09/26 08:20:47;;;;;;;20.95;3.55;;;32.50;47.60;;;;;;4994461;28;20030;-67
2022/09/26 08:23:15;;;;;;;24.00;3.83;;;32.50;47.70;;;;;;4994943;28;20022;-64
2022/09/26 08:25:41;;;;;;;22.15;4.93;;;32.40;47.80;;;;;;4996668;28;20025;-66
2022/09/26 08:28:11;;;;;;;25.10;4.93;;;32.40;47.10;;;;;;5000427;28;20037;-65
2022/09/26 08:30:38;;;;;;;29.48;6.45;;;32.30;47.40;;;;;;5006974;28;20100;-65
2022/09/26 08:33:06;;;;;;;27.73;5.55;;;32.30;47.40;;;;;;4993586;28;20061;-67
2022/09/26 08:35:37;;;;;;;26.92;6.95;;;32.30;47.50;;;;;;4974463;28;20476;-66
2022/09/26 08:38:08;;;;;;;29.15;7.20;;;32.30;48.10;;;;;;5015095;28;20036;-65
2022/09/26 08:40:56;;;;;;;28.75;7.78;;;32.20;47.40;;;;;;4996737;28;20062;-68
2022/09/26 08:43:34;;;;;;;29.70;8.50;;;32.20;47.50;;;;;;4995620;28;20053;-65
2022/09/26 08:48:38;;;;;;;;;;;32.10;49.00;;;;;;5003304;28;20027;-66
2022/09/26 08:51:21;;;;;;;22.52;7.60;;;31.90;48.60;;;;;;5015635;28;20391;-65
2022/09/26 08:56:30;;;;;;;25.67;5.80;;;31.80;49.50;;;;;;5462188;22;20069;-64
2022/09/26 08:58:59;;;;;;;22.25;5.10;;;31.80;49.40;;;;;;5021106;28;20022;-67
2022/09/26 09:01:33;;;;;;;18.50;4.32;;;31.70;48.90;;;;;;5025254;28;20037;-65
2022/09/26 09:04:13;;;;;;;19.17;3.88;;;31.80;49.00;;;;;;5024805;28;20028;-63
2022/09/26 09:06:40;;;;;;;19.92;3.47;;;31.70;49.00;;;;;;5021576;28;20079;-66
2022/09/26 09:09:07;;;;;;;20.60;3.13;;;31.60;49.20;;;;;;5022063;28;20036;-66
2022/09/26 09:12:03;;;;;;;13.88;3.30;;;31.50;49.50;;;;;;5021807;28;20026;-65
2022/09/26 09:14:51;;;;;;;13.77;3.28;;;31.60;50.50;;;;;;5019154;28;20037;-65
2022/09/26 09:17:43;;;;;;;13.60;3.20;;;31.50;50.60;;;;;;5020363;28;20026;-65
2022/09/26 09:20:30;;;;;;;14.73;3.15;;;31.40;50.80;;;;;;5020835;28;20022;-65
2022/09/26 09:23:20;;;;;;;18.02;3.25;;;31.40;51.40;;;;;;5022499;28;20044;-67
2022/09/26 09:26:25;;;;;;;22.10;2.88;;;31.30;51.40;;;;;;5022962;28;20028;-66
2022/09/26 09:29:18;;;;;;;14.57;3.53;;;31.30;51.00;;;;;;5022020;28;20025;-67
2022/09/26 09:31:44;;;;;;;17.13;3.17;;;31.20;51.20;;;;;;5014630;28;20030;-65
2022/09/26 09:34:26;;;;;;;14.68;3.55;;;31.20;52.00;;;;;;5021377;28;20175;-65
2022/09/26 09:37:00;;;;;;;18.35;3.38;;;31.10;52.30;;;;;;5019284;28;20036;-65
2022/09/26 09:39:34;;;;;;;20.83;4.05;;;31.00;52.60;;;;;;5022733;28;20083;-67
2022/09/26 09:42:38;;;;;;;23.73;3.80;;;31.00;52.40;;;;;;5023043;28;20379;-64
2022/09/26 09:45:15;;;;;;;27.23;3.70;;;31.00;52.10;;;;;;5019955;28;20029;-68
2022/09/26 09:47:42;;;;;;;18.88;3.72;;;30.90;52.10;;;;;;5020076;28;20057;-65
2022/09/26 09:50:15;;;;;;;21.20;4.22;;;31.00;52.50;;;;;;5020914;28;20057;-66
2022/09/26 09:53:04;;;;;;;18.13;4.22;;;31.00;52.70;;;;;;5023924;28;20037;-66
2022/09/26 09:55:37;;;;;;;22.35;4.68;;;31.00;52.20;;;;;;5015118;28;20057;-66
2022/09/26 09:58:39;;;;;;;15.77;4.25;;;30.90;51.70;;;;;;5002653;28;20379;-66
2022/09/26 10:01:27;;;;;;;24.20;4.38;;;30.90;51.40;;;;;;5000366;28;20498;-66
2022/09/26 10:04:20;;;;;;;27.05;4.78;;;30.90;51.00;;;;;;5003396;28;20124;-65
2022/09/26 10:06:47;;;;;;;21.42;4.82;;;30.90;52.10;;;;;;4991070;28;20490;-65
2022/09/26 10:09:22;;;;;;;20.95;4.80;;;30.90;51.70;;;;;;5002964;28;20045;-67
2022/09/26 10:11:50;;;;;;;20.02;4.63;;;30.90;51.50;;;;;;5000453;28;20022;-66
2022/09/26 10:14:41;;;;;;;20.80;4.82;;;30.80;51.90;;;;;;5003150;28;20502;-66
2022/09/26 10:17:10;;;;;;;16.08;4.63;;;30.70;51.30;;;;;;4998002;28;20030;-67
2022/09/26 10:19:42;;;;;;;20.45;4.63;;;30.70;52.00;;;;;;5002505;28;20077;-64
2022/09/26 10:22:43;;;;;;;23.33;5.03;;;30.80;51.90;;;;;;5000519;28;20041;-66
2022/09/26 10:25:27;;;;;;;18.13;4.90;;;30.70;52.20;;;;;;5004484;28;20029;-66
2022/09/26 10:27:55;;;;;;;22.60;4.93;;;30.70;52.50;;;;;;5001819;28;21636;-65
2022/09/26 10:30:30;;;;;;;16.45;4.90;;;30.60;51.70;;;;;;5004093;28;20060;-66
2022/09/26 10:33:02;;;;;;;15.50;4.90;;;30.60;51.80;;;;;;5003780;28;20041;-66
2022/09/26 10:35:43;;;;;;;14.88;4.35;;;30.60;52.50;;;;;;5002574;28;20058;-65
2022/09/26 10:38:26;;;;;;;18.23;4.38;;;30.50;52.70;;;;;;4999969;28;20026;-66
2022/09/26 10:40:58;;;;;;;15.60;3.75;;;30.50;52.50;;;;;;5003418;28;20032;-65
2022/09/26 10:43:30;;;;;;;14.93;3.22;;;30.40;52.10;;;;;;5001383;28;20076;-67
2022/09/26 10:46:04;;;;;;;21.23;3.70;;;30.40;52.20;;;;;;5002415;28;20023;-65
2022/09/26 10:48:48;;;;;;;13.48;2.95;;;30.40;52.60;;;;;;5002456;28;20501;-66
2022/09/26 10:51:38;;;;;;;15.75;2.97;;;30.40;53.50;;;;;;5002469;28;20425;-64
2022/09/26 10:54:18;;;;;;;16.15;3.40;;;30.40;53.10;;;;;;4999242;28;20026;-63
2022/09/26 10:56:53;;;;;;;6.78;2.00;;;30.40;52.60;;;;;;5001547;28;20100;-64
2022/09/26 10:59:26;;;;;;;8.15;2.10;;;30.40;52.90;;;;;;5002238;28;20122;-65
2022/09/26 11:01:55;;;;;;;10.65;2.45;;;30.30;52.80;;;;;;5000103;28;20022;-65
2022/09/26 11:07:36;;;;;;;8.73;2.35;;;30.20;52.40;;;;;;5001468;28;20106;-67
2022/09/26 11:10:10;;;;;;;11.10;1.70;;;30.00;53.20;;;;;;5003611;28;20025;-66
2022/09/26 11:12:38;;;;;;;17.67;2.53;;;30.10;53.20;;;;;;5001064;28;20034;-66
2022/09/26 11:15:11;;;;;;;5.72;1.70;;;30.10;53.10;;;;;;5002996;28;20038;-67
2022/09/26 11:17:48;;;;;;;12.13;1.98;;;30.20;52.90;;;;;;4998824;28;20029;-67
2022/09/26 11:20:45;;;;;;;11.50;2.13;;;30.10;52.80;;;;;;5004420;28;20402;-67
2022/09/26 11:23:45;;;;;;;5.53;2.03;;;30.10;53.10;;;;;;5001925;28;20478;-67
2022/09/26 11:26:48;;;;;;;11.02;2.30;;;30.10;53.30;;;;;;4998803;28;20026;-64
2022/09/26 11:29:42;;;;;;;7.35;2.05;;;30.00;53.00;;;;;;4960775;28;20060;-66
2022/09/26 11:32:22;;;;;;;10.90;2.00;;;30.00;53.00;;;;;;4989523;28;20540;-67
2022/09/26 11:34:53;;;;;;;6.10;1.77;;;30.10;53.50;;;;;;4991260;28;20037;-68
2022/09/26 11:37:42;;;;;;;7.75;1.75;;;30.00;53.10;;;;;;5005841;28;20038;-67
2022/09/26 11:40:33;;;;;;;17.52;1.95;;;30.10;53.70;;;;;;5004824;28;20433;-65
2022/09/26 11:43:14;;;;;;;6.88;2.17;;;30.00;53.00;;;;;;5003154;28;20050;-67
2022/09/26 11:45:55;;;;;;;10.32;2.13;;;30.10;53.10;;;;;;5003043;28;20076;-65
2022/09/26 11:48:31;;;;;;;8.65;2.10;;;30.00;53.90;;;;;;5004976;28;20109;-65
2022/09/26 11:51:33;;;;;;;14.52;2.30;;;30.00;54.00;;;;;;5003866;28;20386;-66
2022/09/26 11:54:18;;;;;;;10.07;2.17;;;30.00;54.60;;;;;;5000116;28;20034;-67
2022/09/26 11:56:55;;;;;;;6.43;1.95;;;29.70;54.60;;;;;;5005582;28;20042;-67
2022/09/26 11:59:24;;;;;;;6.40;1.70;;;29.70;53.20;;;;;;5000466;28;20386;-66
2022/09/26 12:02:14;;;;;;;13.73;2.50;;;29.70;52.80;;;;;;5008124;28;20041;-64
2022/09/26 12:05:12;;;;;;;8.05;2.22;;;29.70;53.10;;;;;;5001285;28;20116;-66
2022/09/26 12:07:56;;;;;;;8.00;1.98;;;29.70;52.90;;;;;;5001663;28;20014;-64
2022/09/26 12:10:55;;;;;;;7.43;2.05;;;29.80;53.40;;;;;;5005418;28;20113;-66
2022/09/26 12:13:33;;;;;;;13.50;2.20;;;29.80;53.80;;;;;;5006385;28;20085;-65
2022/09/26 12:16:20;;;;;;;8.85;2.05;;;29.70;53.60;;;;;;5001631;28;20540;-67
2022/09/26 12:19:10;;;;;;;10.18;1.92;;;29.60;53.60;;;;;;4998882;28;20038;-65
2022/09/26 12:25:09;;;;;;;7.60;1.90;;;29.60;55.10;;;;;;5009214;28;20045;-65
2022/09/26 12:27:48;;;;;;;12.02;1.90;;;29.50;54.60;;;;;;5003595;28;20032;-67
2022/09/26 12:30:29;;;;;;;7.80;2.00;;;29.50;54.40;;;;;;5000623;28;20030;-65
2022/09/26 12:33:09;;;;;;;7.78;1.85;;;29.50;54.80;;;;;;5002466;28;20447;-65
2022/09/26 12:35:47;;;;;;;13.15;2.53;;;29.40;55.40;;;;;;5003530;28;20050;-65
2022/09/26 12:38:38;;;;;;;10.93;2.20;;;29.40;55.20;;;;;;5004679;28;20149;-65
2022/09/26 12:41:29;;;;;;;7.22;2.17;;;29.40;54.40;;;;;;5003813;28;20065;-65
2022/09/26 12:44:10;;;;;;;6.97;1.88;;;29.30;54.50;;;;;;5001329;28;20553;-66
2022/09/26 12:46:44;;;;;;;9.48;2.10;;;29.40;54.30;;;;;;5004434;28;20084;-67
2022/09/26 12:49:19;;;;;;;20.02;2.53;;;29.40;54.20;;;;;;5001051;28;20406;-66
2022/09/26 12:51:51;;;;;;;11.87;2.33;;;29.50;55.00;;;;;;5004969;28;20509;-66
2022/09/26 12:54:53;;;;;;;10.95;2.17;;;29.50;54.70;;;;;;5001672;28;20081;-66
2022/09/26 12:57:41;;;;;;;9.93;2.35;;;29.50;54.50;;;;;;5004762;28;20054;-67
2022/09/26 13:00:20;;;;;;;14.48;2.13;;;29.50;55.10;;;;;;4999937;28;20033;-65
2022/09/26 13:03:06;;;;;;;9.20;2.00;;;29.50;55.40;;;;;;5003645;28;20025;-65
2022/09/26 13:05:51;;;;;;;9.70;2.08;;;29.50;55.00;;;;;;5001142;28;20041;-65
2022/09/26 13:08:29;;;;;;;11.57;2.38;;;29.50;54.60;;;;;;4998752;28;20538;-65
2022/09/26 13:11:04;;;;;;;6.57;2.00;;;29.40;55.20;;;;;;5006601;28;20067;-66
2022/09/26 13:14:08;;;;;;;12.82;2.92;;;29.50;54.90;;;;;;5001429;28;20114;-66
2022/09/26 13:17:09;;;;;;;5.22;1.92;;;29.50;54.60;;;;;;5001074;28;20113;-65
2022/09/26 13:19:50;;;;;;;16.55;2.33;;;29.50;55.40;;;;;;5006439;28;20029;-65
2022/09/26 13:22:26;;;;;;;12.45;2.75;;;29.50;55.50;;;;;;5002312;28;20048;-65
2022/09/26 13:24:59;;;;;;;11.77;2.30;;;29.40;54.50;;;;;;5007521;28;20030;-66
2022/09/26 13:27:33;;;;;;;11.35;2.35;;;29.40;54.40;;;;;;5003787;28;20028;-65
2022/09/26 13:30:06;;;;;;;11.23;2.25;;;29.40;54.10;;;;;;5004839;28;20069;-65
2022/09/26 13:33:04;;;;;;;12.45;2.63;;;29.40;54.60;;;;;;5004109;28;20033;-64
2022/09/26 13:35:35;;;;;;;10.30;2.38;;;29.40;54.00;;;;;;5002543;28;20078;-65
2022/09/26 13:38:27;;;;;;;17.90;3.08;;;29.40;53.90;;;;;;5001774;28;20030;-66